Time;durP1;ratioP1;P1;durP2;ratioP2;P2;SDS_P1;SDS_P2;PMS_P1;PMS_P2;Temp;Humidity;BMP_temperature;BMP_pressure;BME280_temperature;BME280_humidity;BME280_pressure;Samples;Min_cycle;Max_cycle;Signal;HPM_P1;HPM_P2
2022/12/29 00:01:45;;;;;;;30.17;17.37;;;;;;;7.20;83.92;100484.14;1694183;82;21417;-83
2022/12/29 00:04:13;;;;;;;36.60;20.88;;;;;;;7.20;83.92;100474.97;1723826;80;21531;-82
2022/12/29 00:06:40;;;;;;;25.45;16.02;;;;;;;7.18;83.91;100477.53;1717728;82;21607;-82
2022/12/29 00:09:07;;;;;;;33.40;18.75;;;;;;;7.18;83.97;100473.61;1720941;80;21796;-83
2022/12/29 00:11:34;;;;;;;24.90;14.98;;;;;;;7.18;83.96;100463.14;1709965;81;21065;-82
2022/12/29 00:16:45;;;;;;;22.48;12.78;;;;;;;7.17;83.95;100463.98;1700776;81;21146;-82
2022/12/29 00:36:36;;;;;;;29.23;13.13;;;;;;;7.13;84.14;100455.56;1713145;81;21753;-90
2022/12/29 00:44:40;;;;;;;26.60;14.50;;;;;;;7.10;84.17;100456.77;1722714;81;21045;-90
2022/12/29 00:50:04;;;;;;;33.90;16.40;;;;;;;7.10;84.24;100452.84;1647303;83;21122;-90
2022/12/29 00:52:31;;;;;;;63.85;28.35;;;;;;;7.10;84.18;100451.95;1725453;81;21054;-91
2022/12/29 00:55:02;;;;;;;49.67;21.50;;;;;;;7.07;84.16;100451.41;1706091;81;21078;-91
2022/12/29 00:57:29;;;;;;;30.97;14.30;;;;;;;7.08;84.24;100454.52;1726559;81;21622;-91
2022/12/29 00:59:56;;;;;;;25.55;11.95;;;;;;;7.10;84.26;100452.84;1731038;81;21084;-82
2022/12/29 01:02:23;;;;;;;47.05;22.05;;;;;;;7.11;84.27;100443.25;1721906;81;22084;-88
2022/12/29 01:04:51;;;;;;;31.68;15.50;;;;;;;7.13;84.29;100445.09;1729905;80;21019;-89
2022/12/29 01:07:20;;;;;;;28.92;14.13;;;;;;;7.13;84.21;100437.25;1708389;81;21058;-89
2022/12/29 01:12:44;;;;;;;15.55;6.92;;;;;;;7.13;84.20;100437.25;1678396;82;21062;-82
2022/12/29 01:15:13;;;;;;;19.40;9.53;;;;;;;7.13;84.19;100433.72;1724949;82;21677;-82
2022/12/29 01:17:42;;;;;;;21.02;11.22;;;;;;;7.12;84.20;100430.64;1726121;80;21071;-88
2022/12/29 01:20:10;;;;;;;14.33;8.60;;;;;;;7.11;84.15;100427.11;1734141;80;21069;-88
2022/12/29 01:22:38;;;;;;;17.17;8.75;;;;;;;7.13;84.22;100416.31;1758515;80;21034;-88
2022/12/29 01:25:07;;;;;;;16.00;9.63;;;;;;;7.12;84.15;100426.72;1728002;80;21158;-88
2022/12/29 01:27:34;;;;;;;13.70;8.13;;;;;;;7.12;84.19;100418.87;1712003;80;21749;-83
2022/12/29 01:30:00;;;;;;;45.85;19.57;;;;;;;7.08;84.07;100420.92;1719268;80;21444;-83
2022/12/29 01:32:28;;;;;;;39.27;18.00;;;;;;;7.06;84.11;100424.78;1706804;82;21072;-83
2022/12/29 01:34:54;;;;;;;27.25;13.80;;;;;;;7.04;84.09;100423.84;1718343;80;21046;-83
2022/12/29 01:37:22;;;;;;;36.35;16.80;;;;;;;7.02;84.15;100420.30;1720428;80;21121;-83
2022/12/29 01:39:49;;;;;;;20.95;12.18;;;;;;;7.01;84.13;100420.69;1705929;81;21790;-83
2022/12/29 01:42:23;;;;;;;13.00;8.38;;;;;;;6.97;84.15;100413.58;1708149;81;21145;-83
2022/12/29 01:44:58;;;;;;;11.83;7.90;;;;;;;6.97;84.23;100414.88;1709533;81;21134;-83
2022/12/29 01:47:35;;;;;;;15.93;10.15;;;;;;;6.98;84.27;100412.75;1713088;81;21550;-83
2022/12/29 01:50:21;;;;;;;11.35;7.78;;;;;;;6.98;84.27;100417.98;1726309;81;21081;-83
2022/12/29 01:52:56;;;;;;;26.87;14.07;;;;;;;6.98;84.25;100417.07;1713380;81;21772;-83
2022/12/29 01:55:22;;;;;;;57.58;25.35;;;;;;;6.99;84.28;100409.71;1708059;81;21054;-83
2022/12/29 01:57:51;;;;;;;53.00;24.00;;;;;;;6.96;84.29;100417.44;1708649;81;21128;-83
2022/12/29 02:00:18;;;;;;;48.40;24.15;;;;;;;6.96;84.34;100414.83;1699927;81;21631;-83
2022/12/29 02:02:52;;;;;;;23.83;13.80;;;;;;;6.95;84.39;100411.33;1706163;81;21084;-83
2022/12/29 02:05:46;;;;;;;27.22;16.35;;;;;;;6.95;84.39;100408.71;1716474;81;21821;-83
2022/12/29 02:08:14;;;;;;;12.37;7.67;;;;;;;6.95;84.41;100411.76;1731333;81;21116;-83
2022/12/29 02:10:41;;;;;;;12.93;8.88;;;;;;;6.97;84.40;100403.53;1714358;81;22078;-82
2022/12/29 02:13:08;;;;;;;10.38;5.92;;;;;;;6.96;84.44;100401.74;1723563;81;21097;-83
2022/12/29 02:16:07;;;;;;;9.78;6.85;;;;;;;6.96;84.42;100398.73;1701566;81;21330;-83
2022/12/29 02:18:55;;;;;;;15.98;10.32;;;;;;;6.98;84.45;100410.53;1710627;81;21561;-83
2022/12/29 02:21:54;;;;;;;16.17;10.63;;;;;;;6.94;84.34;100402.99;1707336;81;21255;-82
2022/12/29 02:24:47;;;;;;;11.18;8.08;;;;;;;6.91;84.33;100402.91;1731310;81;21070;-83
2022/12/29 02:27:57;;;;;;;8.40;6.28;;;;;;;6.90;84.48;100395.88;1706799;81;21058;-83
2022/12/29 02:31:08;;;;;;;5.92;4.75;;;;;;;6.90;84.42;100393.27;1706478;81;21671;-82
2022/12/29 02:34:09;;;;;;;12.23;6.62;;;;;;;6.90;84.51;100388.45;1708710;81;21761;-83
2022/12/29 02:37:02;;;;;;;17.27;9.85;;;;;;;6.89;84.50;100387.98;1721404;81;21960;-83
2022/12/29 02:39:54;;;;;;;29.45;15.83;;;;;;;6.87;84.47;100382.72;1702955;81;21096;-83
2022/12/29 02:43:04;;;;;;;11.40;7.35;;;;;;;6.85;84.43;100383.09;1706255;81;21058;-85
2022/12/29 02:46:00;;;;;;;15.95;8.75;;;;;;;6.84;84.53;100379.98;1637888;86;21894;-83
2022/12/29 02:48:54;;;;;;;19.35;9.23;;;;;;;6.81;84.46;100367.70;1640595;86;21897;-83
2022/12/29 02:51:35;;;;;;;9.63;5.85;;;;;;;6.83;84.57;100370.77;1708224;81;20998;-83
2022/12/29 02:56:47;;;;;;;12.63;7.87;;;;;;;6.82;84.59;100364.66;1717165;81;21101;-82
2022/12/29 02:59:13;;;;;;;14.95;9.78;;;;;;;6.79;84.51;100369.37;1717896;81;21451;-82
2022/12/29 03:05:18;;;;;;;8.78;6.10;;;;;;;6.79;84.59;100341.91;1706604;81;21119;-83
2022/12/29 03:08:02;;;;;;;9.78;6.67;;;;;;;6.78;84.59;100337.50;1689070;82;21090;-82
2022/12/29 03:11:00;;;;;;;10.88;7.70;;;;;;;6.79;84.63;100356.30;1688970;83;21085;-82
2022/12/29 03:16:45;;;;;;;9.45;7.78;;;;;;;6.74;84.59;100363.09;1701441;83;21724;-83
2022/12/29 03:19:34;;;;;;;7.17;6.35;;;;;;;6.73;84.59;100369.14;1685467;83;20987;-83
2022/12/29 03:24:54;;;;;;;7.67;5.90;;;;;;;6.74;84.69;100348.70;1697806;83;21413;-82
2022/12/29 03:27:29;;;;;;;5.85;5.00;;;;;;;6.73;84.75;100346.03;1691731;83;21016;-82
2022/12/29 03:30:00;;;;;;;7.25;5.75;;;;;;;6.73;84.64;100339.49;1693989;83;21745;-84
2022/12/29 03:32:32;;;;;;;7.60;6.20;;;;;;;6.72;84.66;100331.16;1690911;83;21328;-81
2022/12/29 03:34:59;;;;;;;7.67;6.10;;;;;;;6.69;84.63;100335.00;1687213;83;21040;-82
2022/12/29 03:37:30;;;;;;;7.72;6.90;;;;;;;6.69;84.71;100326.73;1694806;83;21000;-82
2022/12/29 03:39:57;;;;;;;9.25;6.33;;;;;;;6.69;84.66;100333.27;1691591;83;21008;-82
2022/12/29 03:42:26;;;;;;;7.97;5.40;;;;;;;6.70;84.71;100331.53;1698338;83;21744;-82
2022/12/29 03:44:56;;;;;;;8.88;6.10;;;;;;;6.68;84.70;100324.97;1691901;83;20975;-82
2022/12/29 03:47:23;;;;;;;7.67;5.70;;;;;;;6.68;84.67;100325.36;1685651;83;20987;-84
2022/12/29 03:49:50;;;;;;;8.18;6.05;;;;;;;6.66;84.56;100334.45;1688146;83;21023;-82
2022/12/29 03:52:17;;;;;;;6.37;5.75;;;;;;;6.63;84.55;100331.76;1687591;83;21107;-84
2022/12/29 03:54:44;;;;;;;9.83;6.40;;;;;;;6.63;84.63;100324.34;1690552;83;21758;-82
2022/12/29 03:57:11;;;;;;;9.20;6.62;;;;;;;6.63;84.67;100327.84;1696858;83;21074;-83
2022/12/29 03:59:39;;;;;;;9.48;7.37;;;;;;;6.63;84.72;100342.22;1690837;83;21066;-83
2022/12/29 04:02:06;;;;;;;7.83;6.62;;;;;;;6.68;84.87;100337.13;1687074;83;21837;-83
2022/12/29 04:04:32;;;;;;;9.20;6.67;;;;;;;6.70;84.84;100333.75;1684410;83;21069;-85
2022/12/29 04:06:59;;;;;;;8.13;6.58;;;;;;;6.70;84.85;100332.45;1697541;81;21784;-83
2022/12/29 04:09:26;;;;;;;9.80;6.15;;;;;;;6.73;84.84;100333.84;1711381;81;21046;-84
2022/12/29 04:11:53;;;;;;;7.35;5.80;;;;;;;6.74;84.80;100324.28;1717928;81;21642;-82
2022/12/29 04:14:20;;;;;;;10.48;6.42;;;;;;;6.72;84.81;100319.00;1725282;81;21062;-82
2022/12/29 04:16:46;;;;;;;10.90;6.60;;;;;;;6.76;84.80;100318.69;1715063;81;21043;-82
2022/12/29 04:19:13;;;;;;;7.25;6.25;;;;;;;6.75;84.77;100306.42;1707115;81;21787;-82
2022/12/29 04:21:40;;;;;;;8.23;6.55;;;;;;;6.71;84.64;100300.20;1722464;81;21085;-82
2022/12/29 04:24:07;;;;;;;8.68;6.55;;;;;;;6.68;84.58;100294.89;1726236;81;21109;-82
2022/12/29 04:26:34;;;;;;;7.87;6.83;;;;;;;6.67;84.65;100298.76;1706765;81;21094;-82
2022/12/29 04:29:01;;;;;;;10.60;7.30;;;;;;;6.65;84.70;100296.09;1702153;82;21075;-84
2022/12/29 04:31:28;;;;;;;8.33;6.72;;;;;;;6.65;84.65;100300.01;1706657;81;21740;-82
2022/12/29 04:33:56;;;;;;;10.58;7.62;;;;;;;6.64;84.71;100292.11;1727817;81;21073;-83
2022/12/29 04:36:23;;;;;;;8.55;6.87;;;;;;;6.63;84.71;100297.77;1716688;81;21026;-82
2022/12/29 04:38:50;;;;;;;9.78;6.97;;;;;;;6.63;84.74;100296.88;1726472;81;21184;-83
2022/12/29 04:41:18;;;;;;;9.53;7.62;;;;;;;6.62;84.81;100290.73;1713659;81;21066;-83
2022/12/29 04:43:45;;;;;;;9.70;7.85;;;;;;;6.63;84.82;100291.22;1704729;81;21823;-83
2022/12/29 04:46:12;;;;;;;11.05;8.18;;;;;;;6.65;84.77;100287.36;1707828;81;21058;-83
2022/12/29 04:48:38;;;;;;;10.75;7.75;;;;;;;6.63;84.70;100283.81;1705192;81;21087;-83
2022/12/29 04:51:05;;;;;;;11.50;7.80;;;;;;;6.61;84.69;100285.06;1713283;81;21357;-83
2022/12/29 04:53:32;;;;;;;13.38;8.53;;;;;;;6.61;84.73;100282.02;1711738;81;21030;-83
2022/12/29 04:55:59;;;;;;;11.35;8.68;;;;;;;6.60;84.72;100285.88;1702866;81;21714;-83
2022/12/29 04:58:26;;;;;;;10.30;7.87;;;;;;;6.63;84.81;100281.19;1705287;81;21568;-90
2022/12/29 05:00:53;;;;;;;12.58;8.58;;;;;;;6.66;84.80;100277.34;1725488;81;21097;-83
2022/12/29 05:03:20;;;;;;;10.32;8.35;;;;;;;6.66;84.77;100277.34;1708152;81;21102;-82
2022/12/29 05:05:47;;;;;;;15.10;8.00;;;;;;;6.67;84.80;100280.02;1713496;81;21035;-82
2022/12/29 05:08:15;;;;;;;11.63;8.35;;;;;;;6.68;84.73;100284.43;1725937;81;22546;-83
2022/12/29 05:10:46;;;;;;;9.65;7.60;;;;;;;6.70;84.74;100284.06;1710218;81;21058;-84
2022/12/29 05:13:13;;;;;;;9.63;7.62;;;;;;;6.73;84.72;100284.56;1711187;81;21098;-83
2022/12/29 05:15:40;;;;;;;9.93;7.33;;;;;;;6.73;84.73;100277.59;1704303;81;21166;-83
2022/12/29 05:18:07;;;;;;;10.40;7.28;;;;;;;6.75;84.66;100276.34;1713618;81;21102;-80
2022/12/29 05:20:33;;;;;;;13.30;7.35;;;;;;;6.74;84.65;100267.63;1710052;81;21748;-83
2022/12/29 05:23:00;;;;;;;9.63;7.10;;;;;;;6.76;84.66;100263.33;1708424;81;21019;-83
2022/12/29 05:25:27;;;;;;;10.50;7.80;;;;;;;6.75;84.56;100259.34;1719796;81;21323;-83
2022/12/29 05:27:54;;;;;;;10.38;7.65;;;;;;;6.76;84.60;100261.14;1720591;81;22978;-83
2022/12/29 05:30:20;;;;;;;12.37;8.08;;;;;;;6.75;84.55;100248.45;1713341;81;21042;-82
2022/12/29 05:32:47;;;;;;;12.93;7.78;;;;;;;6.75;84.40;100244.95;1718243;81;23037;-82
2022/12/29 05:35:15;;;;;;;9.98;7.80;;;;;;;6.69;84.22;100251.31;1707744;81;21059;-83
2022/12/29 05:37:42;;;;;;;11.80;7.97;;;;;;;6.65;84.23;100249.01;1702024;81;21099;-82
2022/12/29 05:40:10;;;;;;;9.83;7.45;;;;;;;6.61;84.24;100240.60;1720961;81;21122;-82
2022/12/29 05:42:36;;;;;;;12.00;7.60;;;;;;;6.59;84.33;100237.93;1704520;81;22258;-81
2022/12/29 05:45:06;;;;;;;10.18;7.90;;;;;;;6.60;84.43;100239.69;1704194;81;21908;-82
2022/12/29 05:47:32;;;;;;;12.43;7.67;;;;;;;6.61;84.49;100246.71;1705061;81;21471;-79
2022/12/29 05:49:59;;;;;;;11.25;8.28;;;;;;;6.63;84.48;100241.97;1714393;81;21057;-81
2022/12/29 05:52:26;;;;;;;11.80;7.55;;;;;;;6.64;84.51;100243.72;1699727;81;21122;-81
2022/12/29 05:54:53;;;;;;;13.55;8.00;;;;;;;6.65;84.49;100241.16;1715469;81;21037;-79
2022/12/29 05:57:19;;;;;;;13.10;7.85;;;;;;;6.66;84.51;100244.23;1698703;81;21746;-81
2022/12/29 05:59:46;;;;;;;11.65;7.28;;;;;;;6.66;84.46;100236.38;1711087;81;21070;-92
2022/12/29 06:02:14;;;;;;;11.25;7.30;;;;;;;6.66;84.47;100228.53;1725496;81;21104;-91
2022/12/29 06:04:45;;;;;;;11.10;7.17;;;;;;;6.69;84.50;100233.00;1728464;81;21584;-87
2022/12/29 06:07:12;;;;;;;12.03;8.50;;;;;;;6.70;84.47;100234.36;1712173;81;21078;-81
2022/12/29 06:09:38;;;;;;;11.38;7.35;;;;;;;6.73;84.53;100228.33;1700933;81;21995;-85
2022/12/29 06:12:06;;;;;;;12.28;7.87;;;;;;;6.74;84.48;100211.81;1716690;81;21019;-83
2022/12/29 06:14:33;;;;;;;14.43;8.23;;;;;;;6.74;84.47;100204.84;1710108;81;21058;-83
2022/12/29 06:16:59;;;;;;;11.63;7.78;;;;;;;6.75;84.38;100196.57;1705276;81;21131;-83
2022/12/29 06:19:27;;;;;;;15.18;8.75;;;;;;;6.75;84.34;100195.26;1711359;81;21483;-83
2022/12/29 06:21:53;;;;;;;17.70;9.75;;;;;;;6.75;84.25;100200.49;1703395;81;22791;-83
2022/12/29 06:24:20;;;;;;;21.50;10.68;;;;;;;6.74;84.26;100191.77;1715398;81;21497;-83
2022/12/29 06:26:47;;;;;;;19.30;10.48;;;;;;;6.75;84.27;100190.91;1709105;81;21073;-83
2022/12/29 06:29:17;;;;;;;12.15;7.92;;;;;;;6.76;84.32;100201.86;1713008;81;21036;-83
2022/12/29 06:31:49;;;;;;;17.87;10.45;;;;;;;6.77;84.29;100201.00;1718614;81;21034;-83
2022/12/29 06:34:16;;;;;;;11.10;7.35;;;;;;;6.80;84.29;100201.53;1713521;81;21822;-82
2022/12/29 06:36:42;;;;;;;14.78;8.15;;;;;;;6.83;84.26;100201.61;1710156;81;21280;-82
2022/12/29 06:39:10;;;;;;;18.95;10.38;;;;;;;6.86;84.21;100198.22;1708616;81;21066;-82
2022/12/29 06:41:37;;;;;;;18.10;10.45;;;;;;;6.86;84.20;100198.22;1708352;81;21144;-82
2022/12/29 06:44:04;;;;;;;13.22;8.25;;;;;;;6.87;84.19;100193.05;1708191;81;21079;-82
2022/12/29 06:46:31;;;;;;;13.35;8.38;;;;;;;6.88;84.10;100198.72;1707443;81;21796;-82
2022/12/29 06:48:58;;;;;;;10.15;7.40;;;;;;;6.88;84.12;100199.16;1706299;81;21073;-82
2022/12/29 06:51:24;;;;;;;12.10;7.50;;;;;;;6.89;84.08;100196.98;1704806;81;21049;-83
2022/12/29 06:53:51;;;;;;;11.28;8.00;;;;;;;6.90;84.11;100197.04;1722675;81;21437;-83
2022/12/29 06:56:18;;;;;;;10.68;7.45;;;;;;;6.91;84.08;100190.98;1717817;81;21046;-82
2022/12/29 06:58:45;;;;;;;15.53;9.85;;;;;;;6.90;84.02;100196.16;1709898;81;21736;-82
2022/12/29 07:01:12;;;;;;;11.50;7.75;;;;;;;6.90;84.07;100199.66;1718475;81;21046;-83
2022/12/29 07:03:40;;;;;;;13.43;7.42;;;;;;;6.92;84.07;100199.71;1713053;83;21129;-83
2022/12/29 07:06:07;;;;;;;10.72;7.28;;;;;;;6.92;84.06;100195.36;1716334;81;21130;-82
2022/12/29 07:08:34;;;;;;;10.80;6.92;;;;;;;6.95;84.13;100194.16;1696286;83;21132;-82
2022/12/29 07:11:02;;;;;;;11.63;6.92;;;;;;;6.99;84.16;100184.67;1693842;83;21972;-82
2022/12/29 07:13:29;;;;;;;13.85;8.08;;;;;;;7.00;84.10;100189.05;1685375;83;21438;-83
2022/12/29 07:15:56;;;;;;;17.20;9.28;;;;;;;7.03;84.12;100179.11;1690720;83;21063;-83
2022/12/29 07:18:23;;;;;;;13.60;9.50;;;;;;;7.05;84.04;100191.81;1690592;83;21109;-83
2022/12/29 07:20:49;;;;;;;13.43;8.63;;;;;;;7.05;84.02;100194.00;1686959;83;21067;-83
2022/12/29 07:23:16;;;;;;;11.38;8.15;;;;;;;7.07;84.04;100198.86;1678497;83;21079;-84
2022/12/29 07:25:43;;;;;;;14.03;8.73;;;;;;;7.11;84.03;100199.84;1693851;83;21088;-83
2022/12/29 07:28:11;;;;;;;12.55;10.03;;;;;;;7.11;84.00;100196.80;1676611;83;21122;-83
2022/12/29 07:30:38;;;;;;;13.48;8.18;;;;;;;7.12;84.00;100193.35;1687393;83;21075;-83
2022/12/29 07:33:05;;;;;;;17.57;11.90;;;;;;;7.13;83.92;100200.38;1686849;83;21095;-83
2022/12/29 07:35:33;;;;;;;16.62;12.33;;;;;;;7.15;84.01;100197.38;1686345;83;21779;-84
2022/12/29 07:38:00;;;;;;;15.75;12.65;;;;;;;7.18;83.94;100203.12;1690588;83;21054;-84
2022/12/29 07:40:27;;;;;;;22.93;16.52;;;;;;;7.19;84.00;100203.17;1692742;83;21055;-84
2022/12/29 07:42:54;;;;;;;14.45;11.43;;;;;;;7.26;84.02;100200.30;1691135;83;21065;-83
2022/12/29 07:45:21;;;;;;;16.25;12.60;;;;;;;7.30;83.96;100199.97;1686136;83;21929;-84
2022/12/29 07:47:49;;;;;;;20.80;14.83;;;;;;;7.31;83.87;100202.63;1690398;83;21713;-83
2022/12/29 07:50:22;;;;;;;25.72;17.37;;;;;;;7.32;83.82;100199.59;1690927;83;21068;-83
2022/12/29 07:52:49;;;;;;;32.07;21.57;;;;;;;7.35;83.85;100195.76;1686905;83;21071;-84
2022/12/29 07:55:16;;;;;;;27.45;18.35;;;;;;;7.40;83.84;100199.41;1690284;83;21135;-83
2022/12/29 07:57:43;;;;;;;27.62;17.00;;;;;;;7.39;83.67;100201.55;1686774;83;21885;-83
2022/12/29 08:00:11;;;;;;;28.20;17.62;;;;;;;7.40;83.71;100197.67;1689995;83;21694;-84
2022/12/29 08:02:38;;;;;;;57.70;36.70;;;;;;;7.43;83.71;100198.59;1683372;83;21951;-84
2022/12/29 08:05:06;;;;;;;23.45;14.75;;;;;;;7.44;83.65;100195.15;1691762;83;22049;-84
2022/12/29 08:07:32;;;;;;;16.95;10.68;;;;;;;7.47;83.71;100190.89;1687461;83;21050;-84
2022/12/29 08:09:59;;;;;;;17.55;12.47;;;;;;;7.51;83.67;100191.44;1692855;83;21126;-83
2022/12/29 08:12:26;;;;;;;18.57;10.98;;;;;;;7.52;83.63;100191.88;1689309;83;21789;-83
2022/12/29 08:14:53;;;;;;;20.08;10.85;;;;;;;7.55;83.58;100193.72;1696280;83;21503;-83
2022/12/29 08:17:20;;;;;;;18.32;12.93;;;;;;;7.58;83.69;100197.72;1685843;83;21060;-83
2022/12/29 08:19:47;;;;;;;17.65;11.33;;;;;;;7.66;83.79;100201.45;1686012;83;21076;-83
2022/12/29 08:22:14;;;;;;;13.85;10.65;;;;;;;7.73;83.74;100202.09;1689208;83;21051;-83
2022/12/29 08:24:41;;;;;;;16.85;9.38;;;;;;;7.80;83.71;100196.59;1685661;83;21755;-83
2022/12/29 08:27:08;;;;;;;20.50;15.78;;;;;;;7.86;83.62;100199.80;1698967;83;21074;-84
2022/12/29 08:29:35;;;;;;;28.07;19.12;;;;;;;7.88;83.55;100204.65;1688071;83;21688;-84
2022/12/29 08:32:01;;;;;;;24.55;19.17;;;;;;;7.86;83.42;100200.67;1691509;83;21068;-83
2022/12/29 08:34:30;;;;;;;58.08;37.13;;;;;;;7.86;83.36;100197.17;1692226;83;21034;-84
2022/12/29 08:36:57;;;;;;;48.23;29.18;;;;;;;7.85;83.41;100203.28;1679229;84;21783;-84
2022/12/29 08:39:23;;;;;;;86.67;43.02;;;;;;;7.84;83.38;100201.05;1695383;83;21408;-84
2022/12/29 08:41:50;;;;;;;59.90;38.00;;;;;;;7.88;83.45;100212.52;1684505;83;21064;-84
2022/12/29 08:44:17;;;;;;;63.55;31.17;;;;;;;7.92;83.46;100205.19;1690970;83;21123;-84
2022/12/29 08:46:44;;;;;;;71.45;39.67;;;;;;;7.92;83.36;100206.50;1699804;83;21066;-84
2022/12/29 08:49:11;;;;;;;37.67;21.40;;;;;;;7.92;83.31;100203.48;1689296;83;21799;-83
2022/12/29 08:51:37;;;;;;;26.77;16.02;;;;;;;7.91;83.32;100200.38;1685077;83;21119;-84
2022/12/29 08:54:04;;;;;;;33.05;19.70;;;;;;;7.93;83.29;100197.81;1688207;83;21047;-84
2022/12/29 08:56:31;;;;;;;23.27;15.98;;;;;;;7.92;83.28;100198.24;1685081;83;21086;-84
2022/12/29 08:58:58;;;;;;;26.95;18.77;;;;;;;7.94;83.35;100193.05;1686374;83;20972;-84
2022/12/29 09:01:25;;;;;;;25.90;15.78;;;;;;;8.00;83.35;100197.56;1687202;83;21740;-91
2022/12/29 09:03:53;;;;;;;37.85;22.17;;;;;;;8.00;83.21;100191.02;1686553;83;21055;-84
2022/12/29 09:06:20;;;;;;;24.90;15.83;;;;;;;7.98;83.18;100185.72;1690601;83;21066;-84
2022/12/29 09:08:47;;;;;;;19.12;12.13;;;;;;;8.02;83.33;100181.45;1686903;83;21145;-84
2022/12/29 09:11:17;;;;;;;24.60;16.82;;;;;;;8.06;83.30;100179.37;1686768;83;21083;-84
2022/12/29 09:13:44;;;;;;;26.87;17.25;;;;;;;8.09;83.24;100169.85;1695096;83;21781;-84
2022/12/29 09:16:11;;;;;;;27.55;15.38;;;;;;;8.12;83.17;100166.41;1686396;83;21023;-84
2022/12/29 09:18:38;;;;;;;18.92;12.07;;;;;;;8.14;83.15;100164.28;1695274;83;20985;-84
2022/12/29 09:21:05;;;;;;;18.92;13.85;;;;;;;8.16;83.05;100173.09;1693741;83;20995;-84
2022/12/29 09:23:32;;;;;;;19.70;13.48;;;;;;;8.20;83.20;100176.66;1688203;83;20993;-84
2022/12/29 09:25:59;;;;;;;17.75;12.33;;;;;;;8.28;83.27;100181.69;1692974;83;22421;-84
2022/12/29 09:28:28;;;;;;;17.55;13.93;;;;;;;8.34;83.18;100184.45;1685128;83;21071;-84
2022/12/29 09:30:56;;;;;;;18.32;11.20;;;;;;;8.40;83.10;100181.09;1686972;83;21505;-83
2022/12/29 09:33:23;;;;;;;13.03;9.10;;;;;;;8.45;83.12;100173.39;1693947;83;21114;-84
2022/12/29 09:35:57;;;;;;;12.10;8.98;;;;;;;8.51;83.00;100165.66;1692808;83;21457;-84
2022/12/29 09:38:26;;;;;;;14.63;9.78;;;;;;;8.56;82.95;100162.30;1668461;84;23062;-84
2022/12/29 09:41:07;;;;;;;17.23;9.23;;;;;;;8.63;82.90;100159.37;1673286;84;21027;-84
2022/12/29 09:43:55;;;;;;;17.00;10.20;;;;;;;8.66;82.74;100160.77;1705693;82;21453;-84
2022/12/29 09:46:28;;;;;;;18.50;9.40;;;;;;;8.71;82.65;100160.89;1691276;82;21085;-84
2022/12/29 09:49:39;;;;;;;17.48;9.65;;;;;;;8.81;82.66;100158.05;1681534;84;21470;-84
2022/12/29 09:52:16;;;;;;;15.43;11.45;;;;;;;8.81;82.47;100146.23;1694780;82;21730;-84
2022/12/29 09:55:00;;;;;;;21.17;12.30;;;;;;;8.86;82.46;100140.23;1697071;83;21701;-83
2022/12/29 09:57:53;;;;;;;32.05;20.02;;;;;;;8.93;82.49;100137.30;1699360;83;21252;-84
2022/12/29 10:00:22;;;;;;;22.27;14.70;;;;;;;8.99;82.37;100133.52;1703453;82;21127;-84
2022/12/29 10:02:59;;;;;;;16.20;12.00;;;;;;;9.01;82.13;100137.06;1701579;83;21046;-84
2022/12/29 10:05:59;;;;;;;26.25;17.40;;;;;;;9.00;82.06;100132.65;1704211;83;21943;-84
2022/12/29 10:09:14;;;;;;;17.52;11.57;;;;;;;9.04;82.08;100137.55;1718296;82;21047;-84
2022/12/29 10:12:00;;;;;;;18.17;12.47;;;;;;;9.06;82.02;100135.83;1680749;84;21112;-84
2022/12/29 10:14:58;;;;;;;13.20;8.85;;;;;;;9.13;81.92;100124.17;1701475;83;21199;-84
2022/12/29 10:17:45;;;;;;;13.90;9.30;;;;;;;9.20;81.88;100119.95;1671364;85;21093;-84
2022/12/29 10:20:32;;;;;;;12.70;8.98;;;;;;;9.26;81.85;100118.75;1668573;85;22593;-84
2022/12/29 10:23:04;;;;;;;19.77;11.53;;;;;;;9.31;81.64;100122.80;1679981;84;21069;-84
2022/12/29 10:25:34;;;;;;;21.65;12.15;;;;;;;9.36;81.56;100128.13;1696431;83;21087;-84
2022/12/29 10:28:05;;;;;;;20.92;11.65;;;;;;;9.37;81.55;100125.55;1675599;85;21122;-84
2022/12/29 10:30:33;;;;;;;17.27;10.53;;;;;;;9.39;81.49;100125.14;1665482;85;21099;-84
2022/12/29 10:33:04;;;;;;;30.17;17.73;;;;;;;9.45;81.45;100116.05;1698310;84;21884;-84
2022/12/29 10:35:38;;;;;;;18.25;10.28;;;;;;;9.48;81.33;100117.44;1705066;84;21591;-84
2022/12/29 10:38:31;;;;;;;24.43;13.62;;;;;;;9.49;80.96;100113.94;1675952;85;21946;-84
2022/12/29 10:41:20;;;;;;;21.50;12.97;;;;;;;9.49;80.96;100113.94;1676013;85;21127;-84
2022/12/29 10:43:49;;;;;;;21.12;12.13;;;;;;;9.47;81.01;100115.66;1677559;84;21784;-84
2022/12/29 10:46:23;;;;;;;17.05;10.48;;;;;;;9.58;81.21;100101.85;1707427;81;21834;-84
2022/12/29 10:48:49;;;;;;;18.75;12.00;;;;;;;9.66;81.09;100094.55;1711711;81;21546;-84
2022/12/29 10:51:30;;;;;;;30.08;17.73;;;;;;;9.79;81.18;100089.09;1734739;80;21054;-84
2022/12/29 10:54:16;;;;;;;22.25;14.50;;;;;;;9.89;80.96;100088.80;1705765;82;21095;-84
2022/12/29 10:56:46;;;;;;;33.50;15.88;;;;;;;9.98;80.87;100089.41;1682625;82;21101;-84
2022/12/29 10:59:25;;;;;;;39.25;21.07;;;;;;;10.15;81.02;100084.42;1744280;81;21955;-84
2022/12/29 11:02:09;;;;;;;53.33;27.67;;;;;;;10.35;80.95;100083.46;1729795;81;21714;-84
2022/12/29 11:05:13;;;;;;;42.38;23.00;;;;;;;10.49;80.74;100087.16;1734165;80;21444;-84
2022/12/29 11:07:39;;;;;;;29.65;16.97;;;;;;;10.61;80.36;100087.35;1716219;82;21004;-84
2022/12/29 11:10:32;;;;;;;19.45;12.60;;;;;;;10.61;80.01;100082.53;1667138;82;21000;-84
2022/12/29 11:13:15;;;;;;;13.05;8.73;;;;;;;10.61;79.88;100086.03;1704775;81;21768;-84
2022/12/29 11:15:44;;;;;;;18.70;12.28;;;;;;;10.60;79.64;100080.30;1710712;81;20979;-85
2022/12/29 11:18:37;;;;;;;13.83;8.58;;;;;;;10.56;79.56;100084.20;1713948;81;21006;-83
2022/12/29 11:21:06;;;;;;;12.05;7.72;;;;;;;10.47;79.36;100081.91;1684316;84;21019;-83
2022/12/29 11:23:41;;;;;;;14.15;8.35;;;;;;;10.35;79.23;100079.08;1729244;80;21024;-85
2022/12/29 11:26:22;;;;;;;16.00;10.93;;;;;;;10.27;79.22;100079.37;1701395;82;21765;-83
2022/12/29 11:29:11;;;;;;;12.18;8.75;;;;;;;10.21;79.29;100085.42;1708665;80;20970;-83
2022/12/29 11:31:47;;;;;;;10.28;8.20;;;;;;;10.16;79.36;100075.69;1713780;80;21075;-83
2022/12/29 11:34:34;;;;;;;11.50;7.45;;;;;;;10.12;79.47;100070.37;1719533;80;21067;-83
2022/12/29 11:37:13;;;;;;;12.43;7.65;;;;;;;10.12;79.49;100074.31;1730905;80;21073;-83
2022/12/29 11:39:53;;;;;;;11.15;7.42;;;;;;;10.18;79.59;100070.02;1708820;80;21764;-83
2022/12/29 11:42:23;;;;;;;10.78;7.62;;;;;;;10.21;79.52;100068.73;1722522;81;21437;-83
2022/12/29 11:44:50;;;;;;;8.63;6.15;;;;;;;10.33;79.65;100072.91;1719887;81;21421;-83
2022/12/29 11:47:29;;;;;;;8.13;5.67;;;;;;;10.40;79.47;100069.92;1709709;81;21417;-83
2022/12/29 11:50:02;;;;;;;9.35;6.83;;;;;;;10.40;79.37;100068.20;1708728;81;21526;-83
2022/12/29 11:52:33;;;;;;;7.60;5.78;;;;;;;10.38;79.28;100070.33;1701357;81;22536;-83
2022/12/29 11:55:00;;;;;;;8.38;5.42;;;;;;;10.31;79.15;100068.06;1706174;81;21043;-83
2022/12/29 11:57:33;;;;;;;9.08;6.10;;;;;;;10.24;79.21;100063.09;1705071;81;21947;-85
2022/12/29 12:00:17;;;;;;;7.58;5.30;;;;;;;10.08;79.12;100054.53;1709166;81;21851;-82
2022/12/29 12:03:16;;;;;;;9.55;5.28;;;;;;;10.03;79.15;100059.70;1702018;81;21130;-83
2022/12/29 12:05:59;;;;;;;8.28;5.10;;;;;;;9.89;79.09;100054.23;1718302;81;21826;-84
2022/12/29 12:08:49;;;;;;;8.13;4.95;;;;;;;9.79;79.28;100049.66;1696863;81;21050;-84
2022/12/29 12:11:25;;;;;;;8.48;5.47;;;;;;;9.72;79.31;100062.23;1677510;84;21089;-85
2022/12/29 12:14:06;;;;;;;10.35;5.65;;;;;;;9.67;79.46;100063.92;1675449;84;21381;-84
2022/12/29 12:16:53;;;;;;;8.20;5.75;;;;;;;9.60;79.57;100052.41;1679551;84;22143;-85
2022/12/29 12:19:40;;;;;;;9.93;5.90;;;;;;;9.62;79.75;100055.06;1671685;84;21766;-86
2022/12/29 12:22:40;;;;;;;13.68;6.35;;;;;;;9.62;79.83;100055.94;1668525;84;21051;-83
2022/12/29 12:25:20;;;;;;;7.87;5.95;;;;;;;9.62;79.80;100059.88;1653119;84;21099;-85
2022/12/29 12:28:12;;;;;;;10.15;5.53;;;;;;;9.66;79.88;100060.38;1673890;84;21170;-85
2022/12/29 12:30:43;;;;;;;15.88;9.68;;;;;;;9.66;79.89;100056.88;1669147;84;21165;-83